Time;durP1;ratioP1;P1;durP2;ratioP2;P2;SDS_P1;SDS_P2;PMS_P1;PMS_P2;Temp;Humidity;BMP_temperature;BMP_pressure;BME280_temperature;BME280_humidity;BME280_pressure;Samples;Min_cycle;Max_cycle;Signal;HPM_P1;HPM_P2
2022/11/09 00:02:27;;;;;;;15.10;13.77;;;;;;;20.38;44.93;95625.75;6019874;28;103746;-68
2022/11/09 00:05:30;;;;;;;16.90;15.47;;;;;;;20.38;44.73;95625.75;6033829;28;103873;-69
2022/11/09 00:08:36;;;;;;;15.40;14.20;;;;;;;20.38;44.80;95628.41;6037809;28;103875;-69
2022/11/09 00:11:39;;;;;;;15.40;14.10;;;;;;;20.34;44.92;95623.94;6016605;28;104269;-68
2022/11/09 00:14:43;;;;;;;15.20;13.90;;;;;;;20.36;44.86;95621.81;6019565;28;104717;-68
2022/11/09 00:17:46;;;;;;;14.90;13.70;;;;;;;20.37;44.74;95634.03;6025160;28;103949;-68
2022/11/09 00:20:49;;;;;;;15.33;14.03;;;;;;;20.36;44.76;95627.91;6013361;28;103732;-68
2022/11/09 00:23:53;;;;;;;14.47;13.13;;;;;;;20.36;44.68;95629.78;6020032;28;103741;-66
2022/11/09 00:26:56;;;;;;;15.40;14.10;;;;;;;20.35;44.67;95633.50;6037728;28;103839;-67
2022/11/09 00:30:00;;;;;;;15.30;14.00;;;;;;;20.34;44.64;95629.28;6039109;28;103767;-68
2022/11/09 00:33:03;;;;;;;14.73;13.33;;;;;;;20.34;44.93;95626.63;6014838;28;105658;-68
2022/11/09 00:36:08;;;;;;;16.00;14.70;;;;;;;20.32;44.76;95626.88;6024493;28;103973;-67
2022/11/09 00:39:12;;;;;;;14.53;13.33;;;;;;;20.29;44.43;95622.91;6028193;28;103740;-67
2022/11/09 00:42:15;;;;;;;14.97;13.57;;;;;;;20.31;44.53;95626.06;6022744;28;103887;-67
2022/11/09 00:45:19;;;;;;;14.50;13.23;;;;;;;20.30;44.75;95621.84;5999404;28;104153;-67
2022/11/09 00:48:22;;;;;;;15.83;14.53;;;;;;;20.32;44.75;95621.53;6023631;28;104225;-67
2022/11/09 00:51:25;;;;;;;15.70;14.40;;;;;;;20.31;44.42;95614.66;6017434;28;104013;-67
2022/11/09 00:54:28;;;;;;;14.47;13.17;;;;;;;20.28;44.67;95610.69;6017237;28;103887;-67
2022/11/09 00:57:31;;;;;;;15.57;14.17;;;;;;;20.26;44.66;95612.03;6013474;28;103700;-67
2022/11/09 01:00:37;;;;;;;15.03;13.83;;;;;;;20.28;44.54;95617.88;6018566;28;103767;-67
2022/11/09 01:03:40;;;;;;;15.17;13.80;;;;;;;20.28;44.45;95613.34;6016816;28;103820;-67
2022/11/09 01:06:43;;;;;;;15.73;14.43;;;;;;;20.26;44.53;95618.16;6008766;28;103891;-68
2022/11/09 01:09:47;;;;;;;14.57;13.37;;;;;;;20.23;44.38;95616.03;6017807;28;103691;-67
2022/11/09 01:12:50;;;;;;;15.00;13.70;;;;;;;20.24;44.59;95609.66;6024622;28;103243;-67
2022/11/09 01:15:54;;;;;;;14.43;13.23;;;;;;;20.24;44.32;95622.13;6025838;28;104412;-67
2022/11/09 01:18:58;;;;;;;16.20;14.90;;;;;;;20.24;44.64;95607.00;5993071;29;103797;-67
2022/11/09 01:22:01;;;;;;;15.00;13.60;;;;;;;20.23;44.60;95613.38;6017156;28;103783;-67
2022/11/09 01:25:05;;;;;;;13.93;12.70;;;;;;;20.23;44.42;95616.03;6016719;28;104019;-67
2022/11/09 01:28:10;;;;;;;15.20;14.00;;;;;;;20.20;44.47;95613.16;6015804;28;103180;-67
2022/11/09 01:31:18;;;;;;;15.13;13.73;;;;;;;20.20;44.57;95613.94;6023178;28;104844;-67
2022/11/09 01:34:21;;;;;;;15.17;13.77;;;;;;;20.22;44.62;95611.78;6020430;28;103900;-67
2022/11/09 01:37:24;;;;;;;15.50;14.20;;;;;;;20.20;44.56;95611.28;6023067;28;103759;-67
2022/11/09 01:40:27;;;;;;;14.20;13.00;;;;;;;20.23;44.47;95608.06;6020796;28;107592;-67
2022/11/09 01:43:31;;;;;;;14.27;13.17;;;;;;;20.20;44.35;95607.81;6035614;28;104888;-67
2022/11/09 01:46:41;;;;;;;15.73;14.33;;;;;;;20.20;44.38;95603.31;6019174;28;104154;-67
2022/11/09 01:49:49;;;;;;;14.97;13.77;;;;;;;20.20;44.42;95608.63;6038971;28;105215;-66
2022/11/09 01:52:52;;;;;;;14.00;12.90;;;;;;;20.18;44.39;95608.09;6009065;28;104258;-67
2022/11/09 01:55:58;;;;;;;15.87;14.47;;;;;;;20.18;44.39;95605.44;6016855;28;103743;-66
2022/11/09 01:59:05;;;;;;;15.17;13.87;;;;;;;20.18;44.34;95605.44;6024376;28;104710;-67
2022/11/09 02:02:11;;;;;;;14.27;13.07;;;;;;;20.16;44.49;95607.56;6027325;28;104880;-67
2022/11/09 02:05:17;;;;;;;15.33;13.93;;;;;;;20.19;44.58;95606.25;6009919;28;103875;-67
2022/11/09 02:08:25;;;;;;;14.83;13.60;;;;;;;20.19;44.44;95598.28;6027621;28;103870;-67
2022/11/09 02:11:29;;;;;;;14.63;13.43;;;;;;;20.17;44.64;95611.84;6027972;28;104001;-66
2022/11/09 02:14:34;;;;;;;14.97;13.70;;;;;;;20.17;44.68;95603.88;6008463;28;103876;-67
2022/11/09 02:17:40;;;;;;;15.10;13.80;;;;;;;20.16;44.64;95604.13;6016319;28;103819;-69
2022/11/09 02:20:49;;;;;;;15.27;13.90;;;;;;;20.16;44.42;95610.22;6034393;28;103906;-68
2022/11/09 02:23:52;;;;;;;15.40;14.10;;;;;;;20.17;44.49;95614.50;5999792;28;103934;-66
2022/11/09 02:26:55;;;;;;;14.73;13.43;;;;;;;20.17;44.22;95603.06;6015879;28;103790;-67
2022/11/09 02:30:00;;;;;;;14.70;13.50;;;;;;;20.16;44.62;95614.75;6018630;28;103037;-67
2022/11/09 02:33:03;;;;;;;15.77;14.33;;;;;;;20.14;44.46;95614.25;6015122;28;103770;-66
2022/11/09 02:36:08;;;;;;;13.80;12.67;;;;;;;20.14;44.48;95620.34;6022842;28;103903;-67
2022/11/09 02:39:14;;;;;;;14.87;13.57;;;;;;;20.13;44.29;95621.41;6012654;28;105573;-66
2022/11/09 02:42:17;;;;;;;14.70;13.40;;;;;;;20.14;44.44;95615.03;6036584;28;103819;-68
2022/11/09 02:45:23;;;;;;;14.30;13.10;;;;;;;20.14;44.38;95617.69;6023632;28;103800;-68
2022/11/09 02:48:27;;;;;;;15.00;13.63;;;;;;;20.11;44.71;95610.28;6012730;28;103743;-68
2022/11/09 02:51:31;;;;;;;14.87;13.67;;;;;;;20.12;44.34;95622.50;6015611;28;103855;-67
2022/11/09 02:54:34;;;;;;;17.83;16.23;;;;;;;20.10;44.21;95611.34;6018384;28;104262;-66
2022/11/09 02:57:37;;;;;;;17.10;15.60;;;;;;;20.06;43.83;95623.63;6017312;29;103715;-68
2022/11/09 03:00:40;;;;;;;17.27;15.77;;;;;;;20.07;44.13;95621.75;6012219;28;104749;-67
2022/11/09 03:03:44;;;;;;;17.40;15.77;;;;;;;20.06;44.18;95623.63;6025045;28;105796;-67
2022/11/09 03:06:48;;;;;;;17.00;15.50;;;;;;;20.09;44.02;95623.06;6041780;28;103983;-68
2022/11/09 03:09:52;;;;;;;15.77;14.47;;;;;;;20.07;44.14;95625.19;6043306;28;103709;-67
2022/11/09 03:12:55;;;;;;;18.70;17.00;;;;;;;20.02;44.35;95633.22;6020638;28;103699;-67
2022/11/09 03:15:58;;;;;;;16.60;15.10;;;;;;;20.02;44.31;95627.91;6003222;29;104315;-67
2022/11/09 03:19:02;;;;;;;17.87;15.07;;;;;;;20.01;44.31;95624.44;6023854;28;103202;-67
2022/11/09 03:22:06;;;;;;;16.33;14.93;;;;;;;20.02;44.19;95625.25;6031749;28;104348;-67
2022/11/09 03:25:10;;;;;;;16.40;14.83;;;;;;;20.03;44.21;95629.50;6006339;28;103731;-68
2022/11/09 03:28:13;;;;;;;19.23;17.43;;;;;;;20.00;44.36;95624.75;6016423;29;104617;-67
2022/11/09 03:31:16;;;;;;;17.13;15.43;;;;;;;20.00;44.19;95614.09;6019440;28;103896;-67
2022/11/09 03:34:19;;;;;;;16.80;15.30;;;;;;;20.00;44.26;95624.75;6013929;28;104102;-68
2022/11/09 03:37:23;;;;;;;16.60;15.20;;;;;;;19.99;44.17;95623.91;6019181;28;104906;-67
2022/11/09 03:40:27;;;;;;;17.43;15.57;;;;;;;20.00;44.08;95627.41;6019064;28;103760;-68
2022/11/09 03:43:30;;;;;;;18.23;16.60;;;;;;;19.98;44.31;95627.63;6032350;28;103877;-68
2022/11/09 03:46:33;;;;;;;18.17;16.60;;;;;;;19.97;44.29;95631.38;6013397;28;104005;-68
2022/11/09 03:49:36;;;;;;;18.47;16.70;;;;;;;19.96;43.96;95631.66;6029731;28;103879;-67
2022/11/09 03:52:43;;;;;;;17.43;15.93;;;;;;;19.95;44.29;95638.81;6032305;28;103772;-67
2022/11/09 03:55:46;;;;;;;18.03;16.53;;;;;;;19.95;44.07;95636.16;6011956;28;105350;-67
2022/11/09 03:58:49;;;;;;;18.23;16.63;;;;;;;19.95;44.04;95630.84;6009443;28;104845;-67
2022/11/09 04:01:52;;;;;;;17.23;15.73;;;;;;;19.96;43.96;95636.97;6024934;28;103903;-67
2022/11/09 04:04:55;;;;;;;16.97;15.50;;;;;;;19.96;44.13;95637.75;6030169;28;103750;-67
2022/11/09 04:08:00;;;;;;;16.33;15.03;;;;;;;19.98;44.38;95632.16;6015715;28;103924;-67
2022/11/09 04:11:03;;;;;;;16.43;14.93;;;;;;;20.00;44.35;95630.03;6013681;28;103846;-67
2022/11/09 04:14:06;;;;;;;16.70;15.10;;;;;;;20.01;44.19;95634.28;6026012;28;103876;-66
2022/11/09 04:17:09;;;;;;;16.70;15.33;;;;;;;20.01;44.44;95634.28;6019036;28;104071;-67
2022/11/09 04:20:12;;;;;;;16.57;14.97;;;;;;;20.01;44.52;95627.13;6015830;28;103963;-66
2022/11/09 04:23:17;;;;;;;17.40;15.60;;;;;;;20.05;44.45;95631.88;6032071;28;103712;-66
2022/11/09 04:26:20;;;;;;;17.40;15.60;;;;;;;20.06;44.58;95630.78;6019638;28;104364;-68
2022/11/09 04:29:23;;;;;;;17.20;15.60;;;;;;;20.04;44.66;95633.72;6012691;29;103839;-67
2022/11/09 04:32:26;;;;;;;17.67;15.97;;;;;;;20.05;44.90;95637.19;6007349;28;103698;-67
2022/11/09 04:35:32;;;;;;;17.67;15.87;;;;;;;20.06;44.75;95628.94;6008740;29;104836;-67
2022/11/09 04:38:36;;;;;;;17.63;15.77;;;;;;;20.03;44.87;95635.59;6016660;29;104501;-67
2022/11/09 04:41:39;;;;;;;17.93;16.03;;;;;;;20.03;45.19;95632.94;6010702;29;103778;-68
2022/11/09 04:44:42;;;;;;;17.10;15.50;;;;;;;20.03;45.16;95629.50;6009402;28;104398;-67
2022/11/09 04:47:45;;;;;;;18.17;16.50;;;;;;;20.06;44.88;95633.44;6020894;28;103691;-67
2022/11/09 04:50:48;;;;;;;17.77;16.00;;;;;;;20.02;45.11;95631.34;6027579;28;104899;-67
2022/11/09 04:53:53;;;;;;;18.90;17.10;;;;;;;20.08;45.09;95632.09;6033761;28;104273;-66
2022/11/09 04:56:56;;;;;;;18.37;16.77;;;;;;;20.13;44.59;95644.53;6027246;28;104014;-67
2022/11/09 04:59:59;;;;;;;20.53;17.80;;;;;;;20.16;45.15;95638.66;6018070;28;103782;-68
2022/11/09 05:03:04;;;;;;;19.63;17.70;;;;;;;20.22;44.98;95642.88;6022464;28;103949;-67
2022/11/09 05:09:25;;;;;;;19.40;17.50;;;;;;;20.27;45.06;95653.50;6010430;29;103794;-68
2022/11/09 05:12:28;;;;;;;18.67;16.87;;;;;;;20.23;44.96;95650.56;6015884;29;104839;-68
2022/11/09 05:15:32;;;;;;;19.03;17.33;;;;;;;20.27;44.98;95650.84;6019033;28;103702;-68
2022/11/09 05:18:35;;;;;;;19.40;17.50;;;;;;;20.26;45.04;95658.00;6010304;28;103760;-68
2022/11/09 05:21:38;;;;;;;17.97;16.27;;;;;;;20.29;45.00;95659.31;6018941;28;104093;-66
2022/11/09 05:24:42;;;;;;;18.47;16.77;;;;;;;20.22;44.82;95659.63;6025577;28;103681;-67
2022/11/09 05:27:45;;;;;;;19.50;17.50;;;;;;;20.21;45.04;95670.53;6015772;28;104347;-67
2022/11/09 05:30:48;;;;;;;19.67;17.67;;;;;;;20.17;45.05;95674.81;6006853;28;103906;-67
2022/11/09 05:33:51;;;;;;;18.17;16.57;;;;;;;20.12;44.93;95670.31;6016931;28;103725;-67
2022/11/09 05:36:54;;;;;;;19.00;17.30;;;;;;;20.11;44.94;95674.03;6017839;29;104824;-67
2022/11/09 05:40:08;;;;;;;19.80;18.00;;;;;;;20.07;44.80;95675.69;6012749;28;103895;-67
2022/11/09 05:43:11;;;;;;;17.93;16.20;;;;;;;20.05;44.97;95682.34;6012464;28;103918;-68
2022/11/09 05:46:15;;;;;;;18.60;16.93;;;;;;;20.05;44.77;95675.16;6017319;28;103942;-67
2022/11/09 05:49:18;;;;;;;18.43;16.60;;;;;;;20.03;44.83;95680.75;6017716;28;104000;-67
2022/11/09 05:52:21;;;;;;;20.17;17.83;;;;;;;20.03;44.79;95677.31;6007067;28;103891;-67
2022/11/09 05:55:25;;;;;;;18.70;16.90;;;;;;;20.01;44.47;95674.94;6017448;28;103987;-68
2022/11/09 05:58:29;;;;;;;17.83;16.00;;;;;;;20.03;44.66;95693.25;6016672;28;103924;-67
2022/11/09 06:01:32;;;;;;;20.03;18.13;;;;;;;20.05;43.91;95685.00;6017364;28;103957;-67
2022/11/09 06:04:35;;;;;;;19.70;17.90;;;;;;;20.01;44.57;95687.41;6007559;28;104211;-67
2022/11/09 06:07:38;;;;;;;17.80;16.20;;;;;;;20.03;44.37;95698.56;6016951;28;104803;-67
2022/11/09 06:10:43;;;;;;;18.97;17.17;;;;;;;20.06;44.55;95702.53;6017799;28;103790;-67
2022/11/09 06:13:46;;;;;;;21.20;19.30;;;;;;;20.31;43.96;95702.34;6015432;28;104755;-66
2022/11/09 06:16:49;;;;;;;20.00;18.13;;;;;;;20.76;42.86;95701.19;6010536;28;104040;-67
2022/11/09 06:19:52;;;;;;;20.13;18.27;;;;;;;20.38;43.70;95704.72;6017473;28;104358;-67
2022/11/09 06:22:56;;;;;;;20.33;18.60;;;;;;;20.26;43.91;95705.84;6016632;28;104798;-67
2022/11/09 06:26:09;;;;;;;20.70;18.80;;;;;;;20.41;44.38;95702.28;6007768;28;103902;-67
2022/11/09 06:29:12;;;;;;;20.87;18.87;;;;;;;21.35;42.05;95704.59;6015584;28;103805;-66
2022/11/09 06:32:15;;;;;;;21.80;19.70;;;;;;;21.84;41.50;95698.13;6016702;28;103716;-67
2022/11/09 06:35:18;;;;;;;22.60;20.37;;;;;;;21.44;41.87;95705.53;6020515;28;103746;-67
2022/11/09 06:38:21;;;;;;;21.00;18.90;;;;;;;20.93;42.91;95704.19;6010066;28;103703;-67
2022/11/09 06:41:25;;;;;;;20.47;18.40;;;;;;;20.83;43.22;95714.13;6021177;28;103820;-67
2022/11/09 06:44:28;;;;;;;21.77;19.67;;;;;;;20.79;43.54;95705.94;6021032;28;104283;-67
2022/11/09 06:47:31;;;;;;;21.00;19.10;;;;;;;20.75;43.86;95707.56;6021405;29;104261;-67
2022/11/09 06:50:34;;;;;;;21.53;19.63;;;;;;;20.68;43.58;95701.00;6010595;28;104407;-66
2022/11/09 06:53:39;;;;;;;21.27;19.47;;;;;;;20.68;43.50;95701.00;6020354;28;105001;-67
2022/11/09 06:56:43;;;;;;;21.50;19.60;;;;;;;20.69;43.37;95703.38;6020863;28;103931;-67
2022/11/09 06:59:47;;;;;;;21.90;19.90;;;;;;;20.73;43.61;95700.94;6013134;28;103888;-67
2022/11/09 07:02:51;;;;;;;21.13;19.23;;;;;;;20.75;43.54;95704.91;6017574;29;104041;-67
2022/11/09 07:05:54;;;;;;;21.90;18.63;;;;;;;20.79;43.54;95699.81;6020052;28;103779;-67
2022/11/09 07:08:57;;;;;;;19.70;17.90;;;;;;;20.83;43.33;95701.63;6019132;29;104089;-67
2022/11/09 07:12:02;;;;;;;20.60;18.67;;;;;;;20.85;43.25;95699.50;6010859;29;103343;-67
2022/11/09 07:15:07;;;;;;;19.50;17.80;;;;;;;20.88;43.02;95701.59;6019646;28;103766;-67
2022/11/09 07:18:12;;;;;;;21.37;19.47;;;;;;;20.91;43.29;95701.03;6018413;28;103798;-67
2022/11/09 07:21:15;;;;;;;19.83;18.13;;;;;;;20.96;42.95;95692.19;6018545;28;103666;-67
2022/11/09 07:24:18;;;;;;;20.77;18.93;;;;;;;20.97;43.25;95691.13;6009693;28;103999;-67
2022/11/09 07:27:22;;;;;;;19.43;17.73;;;;;;;20.99;43.03;95685.50;6020175;28;103925;-67
2022/11/09 07:30:30;;;;;;;20.83;19.03;;;;;;;21.00;43.27;95685.22;6018034;28;103476;-67
2022/11/09 07:33:33;;;;;;;20.40;18.50;;;;;;;21.02;42.93;95691.09;6013195;28;103697;-66
2022/11/09 07:36:36;;;;;;;21.10;19.27;;;;;;;21.04;43.24;95686.28;6013652;28;106202;-67
2022/11/09 07:39:39;;;;;;;18.57;16.90;;;;;;;21.08;43.24;95686.53;6019384;28;104973;-67
2022/11/09 07:42:44;;;;;;;20.23;18.47;;;;;;;21.09;43.18;95677.47;6019315;28;103696;-67
2022/11/09 07:45:47;;;;;;;20.63;18.83;;;;;;;21.09;43.09;95683.56;6006473;28;103764;-67
2022/11/09 07:48:50;;;;;;;19.47;17.67;;;;;;;21.11;43.12;95685.94;6019396;28;103673;-67
2022/11/09 07:51:53;;;;;;;20.57;18.77;;;;;;;21.11;42.85;95691.28;6019543;28;105027;-67
2022/11/09 07:54:56;;;;;;;20.57;18.63;;;;;;;21.13;42.73;95694.44;6019585;28;103966;-67
2022/11/09 07:58:02;;;;;;;20.97;19.07;;;;;;;21.12;42.70;95687.53;6010194;28;103770;-67
2022/11/09 08:01:09;;;;;;;20.63;18.83;;;;;;;21.16;42.83;95694.66;6018565;28;103767;-67
2022/11/09 08:04:13;;;;;;;20.03;18.20;;;;;;;21.14;42.57;95686.16;6020027;29;106423;-67
2022/11/09 08:07:16;;;;;;;21.50;19.40;;;;;;;21.15;43.02;95689.63;6017755;28;104036;-65
2022/11/09 08:10:19;;;;;;;21.60;19.60;;;;;;;21.15;42.71;95692.28;6012120;28;103973;-67
2022/11/09 08:13:24;;;;;;;21.50;19.60;;;;;;;21.15;42.73;95690.41;6018821;28;103858;-66
2022/11/09 08:16:27;;;;;;;21.53;19.63;;;;;;;21.14;42.91;95693.38;6019543;28;103754;-66
2022/11/09 08:19:35;;;;;;;21.30;19.40;;;;;;;21.15;42.67;95692.28;6009193;28;103789;-67
2022/11/09 08:22:41;;;;;;;20.63;18.73;;;;;;;21.15;43.21;95692.28;6018318;28;104135;-67
2022/11/09 08:25:44;;;;;;;20.47;18.73;;;;;;;21.14;42.80;95698.69;6018837;28;104214;-67
2022/11/09 08:28:49;;;;;;;19.97;18.17;;;;;;;21.15;42.99;95689.63;6018539;28;103883;-67
2022/11/09 08:31:52;;;;;;;21.47;19.57;;;;;;;21.15;43.20;95689.63;6007962;29;106110;-66
2022/11/09 08:34:55;;;;;;;20.77;18.87;;;;;;;21.16;42.92;95685.88;6017982;28;103763;-66
2022/11/09 08:38:01;;;;;;;21.00;19.10;;;;;;;21.17;43.34;95690.13;6018457;28;103753;-67
2022/11/09 08:41:05;;;;;;;21.13;19.23;;;;;;;21.16;43.33;95688.53;6018743;28;104793;-67
2022/11/09 08:44:16;;;;;;;20.53;18.73;;;;;;;21.14;43.18;95691.50;6008337;28;103820;-67
2022/11/09 08:47:19;;;;;;;19.93;18.03;;;;;;;21.14;43.12;95690.69;6018935;28;104019;-67
2022/11/09 08:50:22;;;;;;;19.77;17.73;;;;;;;21.14;43.83;95693.38;6017505;28;103932;-66
2022/11/09 08:53:27;;;;;;;20.10;18.30;;;;;;;21.12;44.24;95692.84;6011209;28;104934;-68
2022/11/09 08:56:30;;;;;;;21.10;18.80;;;;;;;21.13;44.91;95684.59;6017483;28;103757;-67
2022/11/09 08:59:35;;;;;;;20.47;18.57;;;;;;;21.12;45.49;95687.53;6018047;28;104143;-66
2022/11/09 09:02:38;;;;;;;21.13;19.03;;;;;;;21.13;45.12;95681.13;6017166;28;103753;-66
2022/11/09 09:05:41;;;;;;;21.20;18.80;;;;;;;21.14;45.62;95686.16;6007781;28;104102;-66
2022/11/09 09:08:44;;;;;;;20.67;18.80;;;;;;;21.13;45.88;95686.47;6018635;28;104045;-67
2022/11/09 09:11:47;;;;;;;20.20;18.33;;;;;;;21.13;46.02;95683.78;6017998;28;103686;-67
2022/11/09 09:14:52;;;;;;;21.07;19.00;;;;;;;21.13;46.30;95689.13;6018266;29;103533;-67
2022/11/09 09:17:55;;;;;;;22.07;19.87;;;;;;;21.14;46.75;95680.06;6007891;28;103825;-65
2022/11/09 09:20:58;;;;;;;20.77;18.77;;;;;;;21.14;46.74;95682.72;6017299;28;103747;-66
2022/11/09 09:24:01;;;;;;;20.53;18.63;;;;;;;21.14;46.82;95685.38;6018376;28;103885;-66
2022/11/09 09:27:04;;;;;;;20.60;18.60;;;;;;;21.16;47.00;95675.25;6012661;28;105008;-66
2022/11/09 09:30:10;;;;;;;24.57;22.27;;;;;;;21.18;46.88;95675.78;6012770;28;104422;-66
2022/11/09 09:33:13;;;;;;;38.83;35.73;;;;;;;21.19;46.94;95672.03;6015746;28;103783;-68
2022/11/09 09:36:18;;;;;;;61.30;56.40;;;;;;;21.21;46.95;95665.34;6017219;28;104302;-66
2022/11/09 09:39:21;;;;;;;81.30;74.80;;;;;;;21.22;47.41;95674.13;6008003;28;103903;-67
2022/11/09 09:42:29;;;;;;;87.70;80.83;;;;;;;21.23;47.20;95669.59;6016900;28;103859;-67
2022/11/09 09:45:38;;;;;;;85.40;78.77;;;;;;;21.32;47.22;95666.00;6017410;28;103780;-69
2022/11/09 09:48:45;;;;;;;85.57;78.83;;;;;;;21.38;47.09;95659.56;6017230;28;103724;-68
2022/11/09 09:51:52;;;;;;;81.37;74.97;;;;;;;21.43;46.68;95658.69;6007433;29;103754;-68
2022/11/09 09:55:01;;;;;;;80.53;74.23;;;;;;;21.45;46.72;95652.00;6017618;28;103678;-68
2022/11/09 09:58:11;;;;;;;80.80;74.23;;;;;;;21.49;46.32;95649.53;6016655;28;103743;-68
2022/11/09 10:01:19;;;;;;;79.63;73.40;;;;;;;21.50;46.51;95641.25;6011943;28;103726;-68
2022/11/09 10:04:25;;;;;;;78.83;72.50;;;;;;;21.51;45.91;95644.75;6012791;28;103912;-68
2022/11/09 10:07:36;;;;;;;73.83;67.83;;;;;;;21.52;45.96;95633.03;6016319;28;103672;-68
2022/11/09 10:10:45;;;;;;;75.20;69.10;;;;;;;21.52;45.71;95633.81;6017038;28;103183;-68
2022/11/09 10:14:03;;;;;;;75.60;69.50;;;;;;;21.54;45.94;95636.19;6006686;28;104083;-68
2022/11/09 10:17:19;;;;;;;70.23;64.63;;;;;;;21.54;45.86;95630.06;6017608;28;103769;-68
2022/11/09 10:20:41;;;;;;;74.23;68.23;;;;;;;21.56;45.49;95622.56;6016623;29;105770;-68
2022/11/09 10:24:06;;;;;;;68.57;62.97;;;;;;;21.57;45.72;95624.16;6011570;28;104303;-68
2022/11/09 10:27:24;;;;;;;67.73;62.10;;;;;;;21.55;45.39;95623.66;6014748;28;103754;-67
2022/11/09 10:30:29;;;;;;;69.43;63.63;;;;;;;21.55;45.39;95613.81;6015088;29;103679;-69
2022/11/09 10:33:33;;;;;;;66.53;61.00;;;;;;;21.56;45.48;95614.59;6015587;28;103966;-68
2022/11/09 10:36:44;;;;;;;65.37;59.97;;;;;;;21.55;45.64;95618.34;6005516;28;104100;-68
2022/11/09 10:39:51;;;;;;;67.20;61.30;;;;;;;21.55;45.71;95615.66;6016677;28;103702;-68
2022/11/09 10:42:57;;;;;;;64.83;59.47;;;;;;;21.55;45.48;95610.34;6016104;28;103768;-68
2022/11/09 10:46:04;;;;;;;65.93;60.47;;;;;;;21.54;45.40;95608.75;6016374;28;104075;-68
2022/11/09 10:49:20;;;;;;;63.97;58.67;;;;;;;21.54;45.41;95598.13;6008202;28;106196;-68
2022/11/09 10:52:31;;;;;;;63.60;58.20;;;;;;;21.52;45.03;95601.06;6016047;28;103908;-69
2022/11/09 10:55:35;;;;;;;62.77;57.40;;;;;;;21.52;45.04;95593.06;6016052;28;103700;-69
2022/11/09 10:58:40;;;;;;;61.93;56.63;;;;;;;21.52;45.49;95593.88;6006016;28;103713;-68
2022/11/09 11:01:43;;;;;;;59.87;54.67;;;;;;;21.48;45.17;95592.84;6016492;28;103923;-68
2022/11/09 11:04:48;;;;;;;60.63;55.47;;;;;;;21.45;45.55;95590.75;6015405;28;103710;-68
2022/11/09 11:07:51;;;;;;;60.80;55.60;;;;;;;21.46;45.30;95584.34;6015654;28;104909;-68
2022/11/09 11:11:07;;;;;;;60.37;55.03;;;;;;;21.47;45.15;95577.94;6005022;28;103800;-68
2022/11/09 11:14:33;;;;;;;59.27;53.97;;;;;;;21.45;45.43;95580.09;6015767;29;103410;-69
2022/11/09 11:17:37;;;;;;;55.70;50.87;;;;;;;21.43;45.05;95578.81;6015941;28;104126;-69
2022/11/09 11:20:41;;;;;;;56.23;51.43;;;;;;;21.42;44.99;95575.34;6012360;28;103817;-69
2022/11/09 11:23:44;;;;;;;55.53;50.47;;;;;;;21.40;45.58;95572.19;6017867;28;104228;-69
2022/11/09 11:26:57;;;;;;;56.27;51.43;;;;;;;21.39;45.18;95570.63;6019660;28;103731;-68
2022/11/09 11:30:06;;;;;;;55.40;50.63;;;;;;;21.38;45.02;95571.69;6019947;28;104164;-69
2022/11/09 11:33:15;;;;;;;54.23;49.57;;;;;;;21.33;45.12;95561.09;6009538;28;103948;-69
2022/11/09 11:36:28;;;;;;;54.37;49.43;;;;;;;21.34;45.56;95564.56;6020142;28;103444;-69
2022/11/09 11:39:43;;;;;;;53.80;49.07;;;;;;;21.32;45.58;95564.84;6019363;28;104511;-69
2022/11/09 11:43:06;;;;;;;53.13;48.63;;;;;;;21.31;45.14;95557.94;6014655;28;103928;-69
2022/11/09 11:46:17;;;;;;;53.03;48.40;;;;;;;21.29;45.41;95551.31;6014494;28;104000;-69
2022/11/09 11:49:46;;;;;;;51.73;47.37;;;;;;;21.28;45.43;95553.19;6019343;28;103185;-69
2022/11/09 11:53:06;;;;;;;51.23;46.80;;;;;;;21.28;45.60;95547.88;6016923;29;103846;-71
2022/11/09 11:56:21;;;;;;;51.27;46.97;;;;;;;21.24;45.19;95546.06;6008657;28;103731;-69
2022/11/09 11:59:46;;;;;;;49.10;44.87;;;;;;;21.24;45.38;95540.75;6019371;28;103782;-69
2022/11/09 12:03:17;;;;;;;49.30;45.10;;;;;;;21.19;45.43;95544.28;6019090;28;103738;-68
2022/11/09 12:06:41;;;;;;;47.40;43.23;;;;;;;21.19;45.21;95544.28;6010644;28;103829;-70
2022/11/09 12:10:08;;;;;;;48.07;43.93;;;;;;;21.18;45.37;95553.34;6016967;28;103946;-68
2022/11/09 12:13:38;;;;;;;49.10;44.80;;;;;;;21.14;45.62;95545.13;6018697;28;103880;-68
2022/11/09 12:16:48;;;;;;;47.33;43.23;;;;;;;21.14;45.22;95547.00;6015641;28;103643;-70
2022/11/09 12:20:09;;;;;;;47.23;42.93;;;;;;;21.13;45.40;95545.41;6012997;28;103659;-69
2022/11/09 12:23:29;;;;;;;46.00;41.90;;;;;;;21.15;45.18;95540.59;6018586;28;104135;-69
2022/11/09 12:26:45;;;;;;;47.97;43.80;;;;;;;21.12;45.29;95533.19;6019298;28;103917;-69
2022/11/09 12:30:13;;;;;;;45.03;41.10;;;;;;;21.10;45.41;95535.34;6009635;28;103629;-69
2022/11/09 12:33:23;;;;;;;46.27;42.07;;;;;;;21.09;45.31;95528.44;6018196;28;103730;-68
2022/11/09 12:36:38;;;;;;;44.83;40.87;;;;;;;21.08;45.48;95529.53;6019446;28;104270;-69
2022/11/09 12:39:46;;;;;;;46.13;42.03;;;;;;;21.09;45.43;95531.09;6015663;28;103906;-69
2022/11/09 12:42:57;;;;;;;43.60;39.70;;;;;;;21.07;45.25;95522.63;6011996;28;103777;-69
2022/11/09 12:46:04;;;;;;;42.97;39.20;;;;;;;21.08;45.08;95529.53;6017897;28;103709;-69
2022/11/09 12:49:32;;;;;;;41.83;38.20;;;;;;;21.15;45.35;95525.41;6019149;28;103653;-69
2022/11/09 12:52:36;;;;;;;40.97;37.47;;;;;;;21.15;45.22;95528.06;6009217;28;104092;-69
2022/11/09 12:55:46;;;;;;;42.27;38.57;;;;;;;21.11;45.37;95526.28;6018716;28;103760;-69
2022/11/09 12:58:51;;;;;;;40.50;37.00;;;;;;;21.08;45.36;95516.22;6018172;28;103818;-68
2022/11/09 13:01:56;;;;;;;41.13;37.37;;;;;;;21.07;45.40;95522.63;6018620;28;103820;-68
2022/11/09 13:05:01;;;;;;;40.17;36.57;;;;;;;21.05;45.50;95512.28;6009883;28;107235;-69
2022/11/09 13:08:06;;;;;;;39.10;35.87;;;;;;;21.06;45.22;95524.50;6018818;28;103327;-68
2022/11/09 13:11:21;;;;;;;40.87;37.20;;;;;;;21.04;45.35;95515.97;6018410;28;103795;-68
2022/11/09 13:14:34;;;;;;;39.43;36.23;;;;;;;21.05;45.13;95522.13;6007879;28;104356;-68
2022/11/09 13:18:00;;;;;;;37.57;34.37;;;;;;;21.03;45.28;95509.06;6017271;28;103682;-69
2022/11/09 13:21:37;;;;;;;36.20;33.13;;;;;;;21.03;45.23;95518.94;6017455;28;104288;-68
2022/11/09 13:24:50;;;;;;;36.90;33.63;;;;;;;21.02;45.33;95512.81;6017755;28;103804;-69
2022/11/09 13:27:53;;;;;;;37.33;34.13;;;;;;;21.00;45.62;95516.81;6011803;28;103837;-69
2022/11/09 13:30:59;;;;;;;38.63;35.37;;;;;;;20.99;45.16;95515.25;6018118;29;104813;-69
2022/11/09 13:34:35;;;;;;;36.67;33.47;;;;;;;20.98;45.07;95517.09;6016977;28;103661;-69
2022/11/09 13:37:56;;;;;;;35.90;32.73;;;;;;;20.98;45.31;95511.00;6007505;29;103923;-69
2022/11/09 13:41:00;;;;;;;35.70;32.70;;;;;;;20.97;45.29;95514.72;6017404;28;103897;-69
2022/11/09 13:44:14;;;;;;;35.70;32.60;;;;;;;20.94;44.98;95513.44;6015725;28;103734;-69
2022/11/09 13:47:37;;;;;;;35.53;32.63;;;;;;;20.93;44.97;95520.63;6017491;28;103893;-69
2022/11/09 13:50:40;;;;;;;36.23;33.03;;;;;;;20.92;45.31;95519.06;6010643;28;103807;-69
2022/11/09 13:53:55;;;;;;;33.70;30.70;;;;;;;20.92;45.44;95516.38;6017762;28;103641;-70
2022/11/09 13:57:02;;;;;;;34.70;31.50;;;;;;;20.92;45.18;95512.94;6017830;28;103797;-69
2022/11/09 14:00:06;;;;;;;33.33;30.43;;;;;;;20.90;45.36;95513.22;6006440;28;104619;-68
2022/11/09 14:03:25;;;;;;;31.57;28.93;;;;;;;20.90;45.20;95509.78;6016945;28;103750;-69
2022/11/09 14:06:29;;;;;;;33.40;30.60;;;;;;;20.89;45.34;95509.00;6016586;28;103742;-69
2022/11/09 14:09:43;;;;;;;32.37;29.57;;;;;;;20.89;45.21;95510.84;6017143;28;104063;-69
2022/11/09 14:12:57;;;;;;;34.00;31.00;;;;;;;20.88;44.92;95506.63;6006435;28;103762;-69